Time;durP1;ratioP1;P1;durP2;ratioP2;P2;SDS_P1;SDS_P2;PMS_P1;PMS_P2;Temp;Humidity;BMP_temperature;BMP_pressure;BME280_temperature;BME280_humidity;BME280_pressure;Samples;Min_cycle;Max_cycle;Signal;HPM_P1;HPM_P2
2023/10/28 00:00:50;;;;;;;5.43;1.93;;;9.20;99.90;;;;;;5076261;28;20599;-46
2023/10/28 00:03:16;;;;;;;6.93;2.20;;;9.30;99.90;;;;;;5076689;28;20176;-44
2023/10/28 00:05:42;;;;;;;4.07;1.80;;;9.30;99.90;;;;;;5076280;28;20203;-45
2023/10/28 00:08:08;;;;;;;7.97;2.17;;;9.30;99.90;;;;;;5076507;28;20188;-45
2023/10/28 00:10:35;;;;;;;8.83;2.17;;;9.30;99.90;;;;;;5058579;28;20218;-41
2023/10/28 00:16:31;;;;;;;8.13;1.60;;;9.30;99.90;;;;;;5076419;28;20183;-41
2023/10/28 00:18:58;;;;;;;5.20;1.33;;;9.40;99.90;;;;;;5058114;28;20186;-39
2023/10/28 00:21:25;;;;;;;6.80;1.47;;;9.40;99.90;;;;;;5058481;28;20298;-41
2023/10/28 00:23:52;;;;;;;6.27;1.77;;;9.40;99.90;;;;;;5058075;28;20196;-42
2023/10/28 00:26:20;;;;;;;6.13;1.60;;;9.50;99.90;;;;;;5076353;28;20179;-40
2023/10/28 00:28:48;;;;;;;2.03;1.20;;;9.50;99.90;;;;;;5058567;28;20191;-41
2023/10/28 00:31:28;;;;;;;3.67;1.60;;;9.50;99.90;;;;;;5057937;28;20224;-39
2023/10/28 00:33:59;;;;;;;4.37;1.33;;;9.40;99.90;;;;;;5058266;28;20184;-40
2023/10/28 00:36:27;;;;;;;3.63;1.43;;;9.50;99.90;;;;;;5058757;28;20207;-41
2023/10/28 00:38:56;;;;;;;4.00;1.50;;;9.50;99.90;;;;;;5057853;28;20189;-41
2023/10/28 00:41:47;;;;;;;4.33;1.20;;;9.50;99.90;;;;;;5075708;28;20239;-39
2023/10/28 00:44:17;;;;;;;6.47;1.30;;;9.50;99.90;;;;;;5043337;28;20193;-40
2023/10/28 00:46:52;;;;;;;6.57;1.23;;;9.50;99.90;;;;;;5041760;28;20680;-40
2023/10/28 00:49:28;;;;;;;4.70;1.23;;;9.40;99.90;;;;;;5058069;28;20195;-40
2023/10/28 00:51:55;;;;;;;6.40;2.07;;;9.40;99.90;;;;;;5058300;28;20272;-40
2023/10/28 00:54:24;;;;;;;2.20;0.90;;;9.40;99.90;;;;;;5075542;28;20198;-41
2023/10/28 00:56:52;;;;;;;5.87;1.40;;;9.40;99.90;;;;;;5058322;28;20222;-40
2023/10/28 00:59:21;;;;;;;4.30;1.23;;;9.50;99.90;;;;;;5057647;28;20186;-41
2023/10/28 01:01:52;;;;;;;3.47;1.60;;;9.50;99.90;;;;;;5041150;28;20256;-40
2023/10/28 01:04:21;;;;;;;4.30;1.10;;;9.50;99.90;;;;;;5057436;28;20181;-40
2023/10/28 01:06:51;;;;;;;4.43;1.30;;;9.50;99.90;;;;;;5056917;28;20194;-40
2023/10/28 01:09:18;;;;;;;5.50;1.17;;;9.50;99.90;;;;;;5057364;28;20190;-41
2023/10/28 01:11:54;;;;;;;2.27;1.20;;;9.50;99.90;;;;;;5075229;28;20559;-39
2023/10/28 01:14:22;;;;;;;5.83;1.20;;;9.50;99.90;;;;;;5058071;28;20183;-40
2023/10/28 01:16:49;;;;;;;4.63;1.43;;;9.60;99.90;;;;;;5058721;28;20669;-39
2023/10/28 01:19:15;;;;;;;2.70;1.20;;;9.60;99.90;;;;;;5058385;28;20193;-40
2023/10/28 01:21:42;;;;;;;6.63;1.77;;;9.60;99.90;;;;;;5042671;28;20231;-40
2023/10/28 01:24:09;;;;;;;4.33;0.90;;;9.60;99.90;;;;;;5058943;28;20194;-41
2023/10/28 01:26:36;;;;;;;3.33;1.27;;;9.60;99.90;;;;;;5057408;28;20207;-39
2023/10/28 01:29:03;;;;;;;2.87;1.10;;;9.60;99.90;;;;;;5056996;28;20268;-40
2023/10/28 01:31:29;;;;;;;2.37;0.93;;;9.60;99.90;;;;;;5057332;28;20226;-38
2023/10/28 01:33:54;;;;;;;5.93;1.20;;;9.70;99.90;;;;;;5056715;28;20190;-41
2023/10/28 01:36:21;;;;;;;4.30;1.20;;;9.70;99.90;;;;;;5056776;28;20186;-40
2023/10/28 01:38:50;;;;;;;5.07;1.23;;;9.70;99.90;;;;;;5074817;28;20546;-40
2023/10/28 01:41:18;;;;;;;2.00;1.37;;;9.70;99.90;;;;;;5056876;28;20275;-39
2023/10/28 01:43:45;;;;;;;2.43;1.27;;;9.70;99.90;;;;;;5074393;28;20186;-42
2023/10/28 01:46:12;;;;;;;4.67;1.27;;;9.70;99.90;;;;;;5056543;28;20223;-41
2023/10/28 01:48:38;;;;;;;2.20;0.97;;;9.70;99.90;;;;;;5074399;28;20197;-40
2023/10/28 01:51:04;;;;;;;2.57;1.20;;;9.70;99.90;;;;;;5056260;28;20222;-39
2023/10/28 01:53:30;;;;;;;4.73;1.27;;;9.80;99.90;;;;;;5056395;28;20192;-40
2023/10/28 01:55:58;;;;;;;2.97;1.00;;;9.70;99.90;;;;;;5074287;28;20580;-40
2023/10/28 01:58:25;;;;;;;5.13;1.13;;;9.70;99.90;;;;;;5056296;28;20224;-40
2023/10/28 02:00:51;;;;;;;5.23;1.17;;;9.80;99.90;;;;;;5056739;28;20213;-40
2023/10/28 02:03:16;;;;;;;1.53;0.87;;;9.80;99.90;;;;;;5074354;28;20198;-42
2023/10/28 02:05:42;;;;;;;3.20;1.10;;;9.80;99.90;;;;;;5056156;28;20288;-39
2023/10/28 02:08:08;;;;;;;2.37;1.20;;;9.90;99.90;;;;;;5073830;28;20194;-39
2023/10/28 02:10:34;;;;;;;6.07;1.10;;;9.90;99.90;;;;;;5074056;28;20572;-40
2023/10/28 02:13:10;;;;;;;3.43;1.00;;;9.90;99.90;;;;;;5074282;28;20187;-39
2023/10/28 02:15:36;;;;;;;4.90;1.07;;;9.90;99.90;;;;;;5055981;28;20627;-39
2023/10/28 02:18:03;;;;;;;3.43;1.03;;;10.00;99.90;;;;;;5055116;28;20200;-40
2023/10/28 02:20:29;;;;;;;2.43;1.03;;;10.00;99.90;;;;;;5055924;28;20562;-41
2023/10/28 02:22:55;;;;;;;1.67;1.07;;;10.00;99.90;;;;;;5073805;28;20202;-41
2023/10/28 02:25:32;;;;;;;4.37;1.33;;;10.00;99.90;;;;;;5056323;28;20672;-42
2023/10/28 02:27:59;;;;;;;1.70;1.10;;;10.00;99.90;;;;;;5073723;28;20174;-39
2023/10/28 02:30:29;;;;;;;3.73;1.27;;;10.00;99.90;;;;;;5073833;28;20204;-40
2023/10/28 02:32:56;;;;;;;2.63;1.03;;;10.00;99.90;;;;;;5055562;28;20187;-41
2023/10/28 02:35:23;;;;;;;2.43;1.00;;;10.00;99.90;;;;;;5074000;28;20192;-39
2023/10/28 02:37:53;;;;;;;2.17;1.10;;;10.00;99.90;;;;;;5055594;28;20271;-41
2023/10/28 02:40:19;;;;;;;3.30;1.23;;;10.00;99.90;;;;;;5055464;28;20212;-42
2023/10/28 02:42:53;;;;;;;1.73;1.10;;;10.00;99.90;;;;;;5055541;28;20208;-40
2023/10/28 02:45:19;;;;;;;2.77;1.30;;;10.00;99.90;;;;;;5055575;28;20192;-40
2023/10/28 02:47:49;;;;;;;2.70;1.23;;;10.00;99.90;;;;;;5073629;28;20720;-40
2023/10/28 02:50:17;;;;;;;3.80;0.93;;;10.00;99.90;;;;;;5055846;28;20201;-41
2023/10/28 02:52:43;;;;;;;3.20;1.30;;;10.00;99.90;;;;;;5073407;28;20213;-41
2023/10/28 02:55:10;;;;;;;2.83;1.00;;;9.90;99.90;;;;;;5055572;28;20195;-41
2023/10/28 02:57:38;;;;;;;2.17;0.90;;;9.90;99.90;;;;;;5055450;28;20565;-39
2023/10/28 03:00:06;;;;;;;3.13;1.00;;;9.90;99.90;;;;;;5055966;28;20626;-40
2023/10/28 03:02:32;;;;;;;3.00;1.20;;;9.90;99.90;;;;;;5055230;28;20192;-41
2023/10/28 03:04:58;;;;;;;1.93;0.90;;;9.80;99.90;;;;;;5073435;28;20553;-40
2023/10/28 03:07:25;;;;;;;3.10;1.13;;;9.80;99.90;;;;;;5055660;28;20186;-40
2023/10/28 03:09:51;;;;;;;1.50;0.97;;;9.80;99.90;;;;;;5073381;28;20190;-39
2023/10/28 03:12:17;;;;;;;1.60;1.00;;;9.70;99.90;;;;;;5055199;28;20302;-39
2023/10/28 03:14:43;;;;;;;5.30;1.40;;;9.70;99.90;;;;;;5073224;28;20265;-40
2023/10/28 03:17:09;;;;;;;1.53;0.90;;;9.60;99.90;;;;;;5038712;28;20275;-39
2023/10/28 03:19:35;;;;;;;1.67;0.87;;;9.60;99.90;;;;;;5073181;28;20189;-40
2023/10/28 03:22:01;;;;;;;1.87;0.90;;;9.50;99.90;;;;;;5073113;28;20234;-40
2023/10/28 03:24:28;;;;;;;1.13;0.73;;;9.50;99.90;;;;;;5055197;28;20194;-39
2023/10/28 03:26:54;;;;;;;2.17;0.93;;;9.50;99.90;;;;;;5055496;28;20605;-41
2023/10/28 03:29:21;;;;;;;1.40;0.70;;;9.40;99.90;;;;;;5073791;28;20185;-39
2023/10/28 03:31:47;;;;;;;2.47;0.80;;;9.40;99.90;;;;;;5058901;28;20280;-39
2023/10/28 03:34:13;;;;;;;1.57;0.70;;;9.40;99.90;;;;;;5059124;28;20278;-39
2023/10/28 03:36:39;;;;;;;3.13;0.83;;;9.40;99.90;;;;;;5058977;28;20190;-41
2023/10/28 03:39:09;;;;;;;3.43;0.80;;;9.30;99.90;;;;;;5077233;28;20206;-41
2023/10/28 03:41:34;;;;;;;2.73;0.90;;;9.30;99.90;;;;;;5058888;28;20221;-40
2023/10/28 03:44:01;;;;;;;6.73;1.07;;;9.30;99.90;;;;;;5076826;28;20188;-41
2023/10/28 03:46:29;;;;;;;2.30;0.97;;;9.30;99.90;;;;;;5077281;28;20181;-39
2023/10/28 03:48:54;;;;;;;1.73;0.80;;;9.30;99.90;;;;;;5058884;28;20194;-41
2023/10/28 03:51:20;;;;;;;1.87;0.97;;;9.30;99.90;;;;;;5076431;28;20289;-41
2023/10/28 03:53:46;;;;;;;4.60;1.50;;;9.30;99.90;;;;;;5058863;28;20183;-41
2023/10/28 03:56:12;;;;;;;1.97;1.00;;;9.30;99.90;;;;;;5076479;28;20546;-41
2023/10/28 03:58:37;;;;;;;2.73;1.67;;;9.20;99.90;;;;;;5076497;28;20698;-39
2023/10/28 04:01:03;;;;;;;1.70;0.93;;;9.20;99.90;;;;;;5076897;28;20201;-40
2023/10/28 04:03:29;;;;;;;5.53;1.07;;;9.20;99.90;;;;;;5076319;28;20191;-40
2023/10/28 04:05:55;;;;;;;2.73;1.20;;;9.20;99.90;;;;;;5059213;28;20185;-41
2023/10/28 04:08:21;;;;;;;2.03;1.10;;;9.20;99.90;;;;;;5041873;28;20284;-41
2023/10/28 04:10:46;;;;;;;1.23;0.77;;;9.10;99.90;;;;;;5041669;28;20305;-42
2023/10/28 04:13:12;;;;;;;3.43;1.23;;;9.10;99.90;;;;;;5058317;28;20238;-41
2023/10/28 04:15:39;;;;;;;2.30;0.87;;;9.10;99.90;;;;;;5076490;28;20172;-38
2023/10/28 04:18:05;;;;;;;2.17;1.03;;;9.10;99.90;;;;;;5076278;28;20197;-39
2023/10/28 04:20:33;;;;;;;3.83;1.30;;;9.10;99.90;;;;;;5076298;28;20206;-38
2023/10/28 04:22:58;;;;;;;2.30;1.00;;;9.10;99.90;;;;;;5057998;28;20200;-41
2023/10/28 04:25:24;;;;;;;4.80;1.10;;;9.10;99.90;;;;;;5076322;28;20275;-40
2023/10/28 04:27:50;;;;;;;1.83;0.97;;;9.10;99.90;;;;;;5058110;28;20549;-39
2023/10/28 04:30:16;;;;;;;2.73;1.07;;;9.10;99.90;;;;;;5075899;28;20291;-40
2023/10/28 04:32:43;;;;;;;1.23;0.83;;;9.10;99.90;;;;;;5057872;28;20313;-40
2023/10/28 04:35:12;;;;;;;3.33;0.93;;;9.10;99.90;;;;;;5076143;28;20170;-41
2023/10/28 04:37:37;;;;;;;3.03;0.80;;;9.20;99.90;;;;;;5075911;28;20194;-40
2023/10/28 04:40:05;;;;;;;5.30;1.10;;;9.20;99.90;;;;;;5058333;28;20192;-40
2023/10/28 04:42:31;;;;;;;3.20;1.10;;;9.20;99.90;;;;;;5074931;28;20276;-40
2023/10/28 04:44:57;;;;;;;3.53;0.83;;;9.20;99.90;;;;;;5057684;28;20197;-38
2023/10/28 04:47:24;;;;;;;3.20;1.00;;;9.20;99.90;;;;;;5057702;28;20199;-40
2023/10/28 04:49:50;;;;;;;4.50;1.00;;;9.20;99.90;;;;;;5075564;28;20588;-39
2023/10/28 04:52:15;;;;;;;1.43;0.90;;;9.20;99.90;;;;;;5057563;28;20247;-40
2023/10/28 04:54:41;;;;;;;1.70;1.00;;;9.20;99.90;;;;;;5076032;28;20563;-41
2023/10/28 04:57:09;;;;;;;3.53;1.03;;;9.20;99.90;;;;;;5057536;28;20191;-39
2023/10/28 04:59:34;;;;;;;1.53;1.00;;;9.20;99.90;;;;;;5075418;28;20185;-39
2023/10/28 05:02:00;;;;;;;1.97;0.90;;;9.20;99.90;;;;;;5075401;28;20327;-41
2023/10/28 05:04:27;;;;;;;2.37;1.00;;;9.20;99.90;;;;;;5057328;28;20697;-39
2023/10/28 05:06:53;;;;;;;2.07;1.20;;;9.30;99.90;;;;;;5075434;28;20192;-39
2023/10/28 05:09:20;;;;;;;4.00;0.97;;;9.30;99.90;;;;;;5075224;28;20216;-39
2023/10/28 05:11:46;;;;;;;4.00;1.20;;;9.20;99.90;;;;;;5057123;28;20221;-40
2023/10/28 05:14:13;;;;;;;3.57;1.23;;;9.20;99.90;;;;;;5040703;28;20197;-39
2023/10/28 05:16:39;;;;;;;2.47;1.10;;;9.20;99.90;;;;;;5057107;28;20267;-43
2023/10/28 05:19:05;;;;;;;3.23;1.00;;;9.20;99.90;;;;;;5057227;28;20284;-39
2023/10/28 05:21:31;;;;;;;4.77;1.10;;;9.20;99.90;;;;;;5074887;28;20242;-40
2023/10/28 05:23:57;;;;;;;3.17;1.10;;;9.20;99.90;;;;;;5074962;28;20170;-41
2023/10/28 05:26:22;;;;;;;3.30;1.43;;;9.20;99.90;;;;;;5057086;28;20181;-39
2023/10/28 05:28:50;;;;;;;2.97;1.53;;;9.20;99.90;;;;;;5056911;28;20251;-39
2023/10/28 05:31:15;;;;;;;3.00;1.40;;;9.20;99.90;;;;;;5074814;28;20208;-39
2023/10/28 05:33:41;;;;;;;1.70;1.30;;;9.10;99.90;;;;;;5040435;28;20241;-40
2023/10/28 05:36:07;;;;;;;5.43;1.20;;;9.10;99.90;;;;;;5056942;28;20283;-41
2023/10/28 05:38:32;;;;;;;3.03;1.20;;;9.10;99.90;;;;;;5056503;28;20190;-40
2023/10/28 05:40:58;;;;;;;1.73;0.90;;;9.10;99.90;;;;;;5056634;28;20235;-40
2023/10/28 05:43:24;;;;;;;2.07;1.20;;;9.10;99.90;;;;;;5056633;28;20192;-41
2023/10/28 05:45:49;;;;;;;2.93;1.10;;;9.00;99.90;;;;;;5074804;28;20552;-41
2023/10/28 05:48:17;;;;;;;3.37;1.23;;;9.00;99.90;;;;;;5074913;28;20224;-42
2023/10/28 05:50:42;;;;;;;1.70;1.07;;;9.00;99.90;;;;;;5074660;28;20217;-41
2023/10/28 05:53:08;;;;;;;6.23;0.70;;;9.00;99.90;;;;;;5074561;28;20541;-40
2023/10/28 05:55:33;;;;;;;3.60;1.00;;;9.00;99.90;;;;;;5057412;28;20193;-39
2023/10/28 05:57:59;;;;;;;4.97;1.00;;;9.00;99.90;;;;;;5075548;28;20181;-41
2023/10/28 06:00:28;;;;;;;1.90;0.77;;;9.00;99.90;;;;;;5059027;28;20244;-40
2023/10/28 06:02:55;;;;;;;2.03;0.60;;;9.00;99.90;;;;;;5075352;28;20209;-41
2023/10/28 06:05:20;;;;;;;3.23;0.90;;;9.10;99.90;;;;;;5056370;28;20228;-39
2023/10/28 06:07:47;;;;;;;2.90;0.90;;;9.10;99.90;;;;;;5056200;28;20651;-39
2023/10/28 06:10:14;;;;;;;8.63;0.90;;;9.10;99.90;;;;;;5039954;28;20254;-40
2023/10/28 06:12:40;;;;;;;2.03;1.10;;;9.10;99.90;;;;;;5073869;28;20232;-39
2023/10/28 06:15:06;;;;;;;2.53;0.80;;;9.10;99.90;;;;;;5073851;28;20179;-39
2023/10/28 06:17:34;;;;;;;2.13;0.83;;;9.10;99.90;;;;;;5056024;28;20599;-39
2023/10/28 06:20:01;;;;;;;3.83;1.00;;;9.20;99.90;;;;;;5039322;28;20603;-40
2023/10/28 06:22:27;;;;;;;3.40;0.90;;;9.20;99.90;;;;;;5039444;28;20216;-41
2023/10/28 06:24:54;;;;;;;6.53;0.80;;;9.20;99.90;;;;;;5039309;28;20659;-39
2023/10/28 06:27:22;;;;;;;2.90;0.70;;;9.20;99.90;;;;;;5055901;28;20189;-42
2023/10/28 06:29:48;;;;;;;2.17;1.10;;;9.20;99.90;;;;;;5055879;28;20249;-40
2023/10/28 06:32:14;;;;;;;2.13;1.00;;;9.30;99.90;;;;;;5073938;28;20220;-39
2023/10/28 06:34:40;;;;;;;1.93;1.00;;;9.30;99.90;;;;;;5055702;28;20210;-40
2023/10/28 06:37:06;;;;;;;3.90;1.00;;;9.30;99.90;;;;;;5073683;28;20208;-40
2023/10/28 06:39:35;;;;;;;2.37;0.70;;;9.30;99.90;;;;;;5073533;28;20184;-40
2023/10/28 06:42:04;;;;;;;4.70;1.00;;;9.40;99.90;;;;;;5055458;28;20208;-39
2023/10/28 06:44:29;;;;;;;3.23;0.90;;;9.40;99.90;;;;;;5073630;28;20599;-42
2023/10/28 06:46:55;;;;;;;1.17;0.93;;;9.40;99.90;;;;;;5074131;28;20214;-40
2023/10/28 06:49:21;;;;;;;5.63;1.10;;;9.40;99.90;;;;;;5073465;28;20187;-39
2023/10/28 06:51:47;;;;;;;3.10;0.83;;;9.40;99.90;;;;;;5073536;28;20642;-40
2023/10/28 06:54:13;;;;;;;1.77;0.70;;;9.50;99.90;;;;;;5055513;28;20189;-40
2023/10/28 06:56:39;;;;;;;2.13;0.80;;;9.50;99.90;;;;;;5055651;28;20551;-39
2023/10/28 06:59:04;;;;;;;1.00;0.70;;;9.50;99.90;;;;;;5073397;28;20179;-40
2023/10/28 07:01:32;;;;;;;2.30;0.80;;;9.60;99.90;;;;;;5055400;28;20215;-39
2023/10/28 07:03:58;;;;;;;1.60;1.00;;;9.60;99.90;;;;;;5054662;28;20265;-41
2023/10/28 07:06:39;;;;;;;4.83;0.90;;;9.60;99.90;;;;;;5055344;28;20674;-40
2023/10/28 07:09:05;;;;;;;2.77;0.93;;;9.60;99.90;;;;;;5055416;28;20183;-40
2023/10/28 07:11:32;;;;;;;1.50;0.97;;;9.70;99.90;;;;;;5039092;28;20239;-39
2023/10/28 07:13:58;;;;;;;1.67;0.80;;;9.70;99.90;;;;;;5055272;28;20267;-40
2023/10/28 07:16:24;;;;;;;1.20;0.77;;;9.70;99.90;;;;;;5055189;28;20322;-40
2023/10/28 07:18:50;;;;;;;2.73;1.10;;;9.70;99.90;;;;;;5073777;28;20235;-39
2023/10/28 07:21:16;;;;;;;1.00;0.87;;;9.80;99.90;;;;;;5055248;28;20212;-39
2023/10/28 07:23:42;;;;;;;1.33;0.70;;;9.80;99.90;;;;;;5073192;28;20182;-39
2023/10/28 07:26:10;;;;;;;5.40;0.97;;;9.90;99.90;;;;;;5073160;28;20266;-41
2023/10/28 07:28:39;;;;;;;3.40;0.83;;;9.90;99.90;;;;;;5054961;28;20183;-39
2023/10/28 07:31:06;;;;;;;5.87;0.80;;;9.90;99.90;;;;;;5038424;28;20232;-41
2023/10/28 07:33:32;;;;;;;1.97;0.80;;;10.00;99.90;;;;;;5038388;28;20239;-40
2023/10/28 07:36:02;;;;;;;2.33;0.90;;;10.10;99.90;;;;;;5072995;28;20184;-42
2023/10/28 07:38:30;;;;;;;1.87;0.73;;;10.10;99.90;;;;;;5038951;28;20178;-40
2023/10/28 07:40:57;;;;;;;2.03;1.00;;;10.20;99.90;;;;;;5073215;28;20196;-41
2023/10/28 07:43:23;;;;;;;4.90;0.90;;;10.20;99.90;;;;;;5055414;28;20190;-42
2023/10/28 07:45:50;;;;;;;3.57;1.23;;;10.20;99.90;;;;;;5072891;28;20176;-40
2023/10/28 07:48:18;;;;;;;2.17;1.00;;;10.20;99.90;;;;;;5073143;28;20187;-40
2023/10/28 07:50:44;;;;;;;5.80;1.27;;;10.30;99.90;;;;;;5072720;28;20206;-39
2023/10/28 07:53:11;;;;;;;3.73;1.23;;;10.30;99.90;;;;;;5072799;28;20183;-39
2023/10/28 07:55:38;;;;;;;3.33;1.07;;;10.40;99.90;;;;;;5072800;28;20268;-39
2023/10/28 07:58:05;;;;;;;4.10;0.80;;;10.50;99.90;;;;;;5072791;28;20175;-41
2023/10/28 08:00:31;;;;;;;3.83;1.00;;;10.50;99.90;;;;;;5072861;28;20195;-39
2023/10/28 08:02:57;;;;;;;3.23;1.20;;;10.50;99.90;;;;;;5072670;28;20186;-40
2023/10/28 08:05:25;;;;;;;3.53;1.00;;;10.60;99.90;;;;;;5072976;28;20197;-42
2023/10/28 08:07:52;;;;;;;3.17;1.20;;;10.60;99.90;;;;;;5072816;28;20184;-40
2023/10/28 08:10:22;;;;;;;4.20;0.70;;;10.70;99.90;;;;;;5072951;28;20298;-40
2023/10/28 08:12:51;;;;;;;4.83;0.93;;;10.70;99.90;;;;;;5073023;28;20221;-40
2023/10/28 08:15:19;;;;;;;4.20;0.90;;;10.80;99.90;;;;;;5072444;28;20186;-40
2023/10/28 08:17:46;;;;;;;6.23;0.80;;;10.80;99.90;;;;;;5075332;28;20187;-42
2023/10/28 08:20:14;;;;;;;5.67;1.10;;;10.90;99.90;;;;;;5058912;28;20221;-41
2023/10/28 08:22:40;;;;;;;4.20;0.97;;;10.90;99.90;;;;;;5076196;28;20258;-39
2023/10/28 08:25:08;;;;;;;3.30;0.80;;;11.00;99.90;;;;;;5058097;28;20198;-40
2023/10/28 08:27:35;;;;;;;2.70;0.90;;;11.00;99.90;;;;;;5076097;28;20189;-39
2023/10/28 08:30:01;;;;;;;7.63;1.20;;;11.10;99.90;;;;;;5076128;28;20183;-39
2023/10/28 08:32:27;;;;;;;6.47;0.90;;;11.10;99.90;;;;;;5056695;28;20582;-38
2023/10/28 08:34:54;;;;;;;3.60;1.13;;;11.10;99.90;;;;;;5076131;28;20217;-41
2023/10/28 08:37:21;;;;;;;4.77;0.97;;;11.10;99.90;;;;;;5075938;28;20222;-42
2023/10/28 08:39:47;;;;;;;2.77;0.97;;;11.20;99.90;;;;;;5058183;28;20191;-39
2023/10/28 08:42:14;;;;;;;3.30;0.70;;;11.30;99.90;;;;;;5075650;28;20216;-39
2023/10/28 08:44:42;;;;;;;4.70;0.63;;;11.30;99.90;;;;;;5075635;28;20548;-41
2023/10/28 08:47:08;;;;;;;2.60;0.70;;;11.40;99.90;;;;;;5057715;28;20552;-40
2023/10/28 08:49:43;;;;;;;4.60;0.83;;;11.50;99.90;;;;;;5075989;28;20235;-41
2023/10/28 08:52:18;;;;;;;0.63;0.53;;;11.50;99.90;;;;;;5058162;28;20773;-40
2023/10/28 08:54:45;;;;;;;2.60;1.07;;;11.60;99.90;;;;;;5075923;28;20512;-39
2023/10/28 08:57:13;;;;;;;3.57;0.97;;;11.60;99.90;;;;;;5075532;28;20183;-41
2023/10/28 08:59:45;;;;;;;3.27;0.80;;;11.70;99.90;;;;;;5075499;28;20182;-39
2023/10/28 09:02:12;;;;;;;4.73;0.80;;;11.80;99.90;;;;;;5075715;28;20233;-41
2023/10/28 09:04:38;;;;;;;2.00;0.70;;;11.80;99.90;;;;;;5075490;28;20184;-41
2023/10/28 09:07:05;;;;;;;4.40;1.00;;;11.90;99.90;;;;;;5057818;28;20591;-39
2023/10/28 09:09:31;;;;;;;2.47;0.90;;;12.00;99.90;;;;;;5075578;28;20190;-41
2023/10/28 09:11:57;;;;;;;2.30;0.90;;;12.10;99.90;;;;;;5075058;28;20219;-40
2023/10/28 09:14:24;;;;;;;5.70;0.83;;;12.00;99.90;;;;;;5057534;28;20555;-40
2023/10/28 09:16:51;;;;;;;1.47;0.60;;;12.10;99.90;;;;;;5075376;28;20186;-39
2023/10/28 09:19:21;;;;;;;3.77;0.90;;;12.10;99.90;;;;;;5075184;28;20164;-40
2023/10/28 09:21:51;;;;;;;9.40;1.00;;;12.10;99.90;;;;;;5074876;28;20214;-41
2023/10/28 09:24:18;;;;;;;1.67;0.90;;;12.10;99.90;;;;;;5057070;28;20199;-39
2023/10/28 09:26:44;;;;;;;4.03;1.10;;;12.10;99.90;;;;;;5074614;28;20179;-39
2023/10/28 09:29:11;;;;;;;1.23;0.70;;;12.10;99.90;;;;;;5074502;28;20180;-39
2023/10/28 09:31:37;;;;;;;2.33;0.93;;;12.10;99.90;;;;;;5056882;28;20215;-43
2023/10/28 09:34:07;;;;;;;3.07;0.60;;;12.20;99.90;;;;;;5075050;28;20318;-40
2023/10/28 09:36:33;;;;;;;4.00;0.70;;;12.20;99.90;;;;;;5074721;28;20179;-40
2023/10/28 09:39:00;;;;;;;5.83;1.20;;;12.30;99.90;;;;;;5074756;28;20321;-40
2023/10/28 09:41:29;;;;;;;4.10;1.23;;;12.30;99.90;;;;;;5074376;28;20406;-39
2023/10/28 09:43:59;;;;;;;5.00;0.90;;;12.40;99.90;;;;;;5074569;28;20533;-41
2023/10/28 09:46:31;;;;;;;5.27;1.30;;;12.50;99.90;;;;;;5040474;28;20191;-40
2023/10/28 09:49:17;;;;;;;3.77;0.70;;;12.70;99.90;;;;;;5059192;28;20287;-39
2023/10/28 09:51:51;;;;;;;9.90;1.27;;;12.70;99.90;;;;;;5074354;28;20292;-42
2023/10/28 09:54:21;;;;;;;6.47;1.10;;;12.90;99.90;;;;;;5075016;28;20627;-40
2023/10/28 09:56:49;;;;;;;3.37;1.20;;;13.00;99.90;;;;;;5074505;28;20205;-42
2023/10/28 09:59:21;;;;;;;6.00;1.10;;;13.10;99.90;;;;;;5074634;28;20550;-42
2023/10/28 10:02:01;;;;;;;4.47;1.03;;;13.30;99.90;;;;;;5074129;28;20207;-42
2023/10/28 10:04:49;;;;;;;7.53;1.33;;;13.50;99.90;;;;;;5074514;28;20186;-41
2023/10/28 10:07:16;;;;;;;6.10;1.10;;;13.70;99.90;;;;;;5056567;28;20164;-42
2023/10/28 10:09:48;;;;;;;4.83;0.90;;;13.80;99.90;;;;;;5074162;28;20237;-40
2023/10/28 10:12:28;;;;;;;5.90;1.30;;;13.90;99.90;;;;;;5073994;28;20222;-39
2023/10/28 10:14:59;;;;;;;11.43;1.70;;;14.10;99.90;;;;;;5074082;28;20167;-39
2023/10/28 10:17:36;;;;;;;7.10;1.67;;;14.10;99.90;;;;;;5074129;28;20183;-41
2023/10/28 10:20:04;;;;;;;5.17;1.13;;;14.20;99.90;;;;;;5074534;28;20163;-40
2023/10/28 10:22:31;;;;;;;5.77;1.57;;;14.30;99.90;;;;;;5073648;28;20249;-39
2023/10/28 10:24:57;;;;;;;4.83;1.20;;;14.40;99.90;;;;;;5074165;28;20231;-42
2023/10/28 10:27:47;;;;;;;7.27;1.50;;;14.50;99.90;;;;;;5074176;28;20207;-39
2023/10/28 10:30:13;;;;;;;9.47;1.57;;;14.40;99.90;;;;;;5074031;28;20573;-40
2023/10/28 10:32:51;;;;;;;8.00;2.27;;;14.50;99.90;;;;;;5073878;28;20211;-40
2023/10/28 10:35:36;;;;;;;11.63;2.10;;;14.40;99.90;;;;;;5074043;28;20193;-41
2023/10/28 10:38:32;;;;;;;6.90;1.37;;;14.40;99.90;;;;;;5072655;28;20199;-41
2023/10/28 10:40:58;;;;;;;7.23;1.60;;;14.20;99.90;;;;;;5055635;28;20278;-41
2023/10/28 10:43:31;;;;;;;8.17;2.03;;;14.20;99.90;;;;;;5074084;28;20588;-41
2023/10/28 10:45:58;;;;;;;19.83;2.27;;;14.10;99.90;;;;;;5073937;28;20179;-41
2023/10/28 10:48:33;;;;;;;13.03;2.10;;;14.10;99.90;;;;;;5072886;28;20266;-42
2023/10/28 10:51:00;;;;;;;4.07;1.23;;;14.10;99.90;;;;;;5073411;28;20187;-40
2023/10/28 10:53:26;;;;;;;8.57;1.30;;;14.20;99.90;;;;;;5073581;28;20195;-41
2023/10/28 10:55:57;;;;;;;5.73;1.93;;;14.30;99.90;;;;;;5074134;28;20195;-41
2023/10/28 10:58:22;;;;;;;16.17;2.23;;;14.30;99.90;;;;;;5055816;28;20639;-43
2023/10/28 11:00:56;;;;;;;9.30;1.70;;;14.20;99.90;;;;;;5075647;28;20216;-42
2023/10/28 11:03:24;;;;;;;7.37;1.90;;;14.20;99.90;;;;;;5057855;28;20183;-41
2023/10/28 11:05:51;;;;;;;9.00;2.10;;;14.30;99.90;;;;;;5056290;28;20329;-40
2023/10/28 11:08:17;;;;;;;10.77;1.97;;;14.20;99.90;;;;;;5073935;28;20258;-41
2023/10/28 11:10:45;;;;;;;13.50;2.10;;;14.20;99.90;;;;;;5073752;28;20202;-40
2023/10/28 11:13:14;;;;;;;7.87;1.60;;;14.30;99.90;;;;;;5054817;28;20221;-42
2023/10/28 11:15:39;;;;;;;9.90;1.67;;;14.30;99.90;;;;;;5055423;28;20191;-41
2023/10/28 11:18:07;;;;;;;7.73;2.00;;;14.30;99.90;;;;;;5055389;28;20194;-42
2023/10/28 11:20:32;;;;;;;9.83;2.10;;;14.40;99.90;;;;;;5073107;28;20620;-41
2023/10/28 11:22:58;;;;;;;5.40;1.77;;;14.60;99.90;;;;;;5073250;28;20226;-41
2023/10/28 11:25:31;;;;;;;9.77;1.90;;;14.70;99.90;;;;;;5073673;28;20503;-42
2023/10/28 11:27:56;;;;;;;15.43;1.70;;;14.80;99.90;;;;;;5073585;28;20247;-41
2023/10/28 11:30:26;;;;;;;6.33;1.77;;;14.80;99.90;;;;;;5073037;28;20294;-41
2023/10/28 11:32:54;;;;;;;11.67;1.70;;;14.90;99.90;;;;;;5055375;28;20261;-42
2023/10/28 11:35:20;;;;;;;9.07;1.83;;;15.00;99.90;;;;;;5055064;28;20207;-40
2023/10/28 11:37:46;;;;;;;10.03;1.93;;;15.00;99.90;;;;;;5073318;28;20218;-42
2023/10/28 11:40:12;;;;;;;7.90;1.97;;;15.00;99.90;;;;;;5072971;28;20223;-42
2023/10/28 11:42:37;;;;;;;13.27;1.90;;;15.10;99.90;;;;;;5072926;28;20667;-42
2023/10/28 11:45:06;;;;;;;7.90;2.10;;;15.10;99.90;;;;;;5072964;28;20192;-41
2023/10/28 11:47:32;;;;;;;12.80;1.93;;;15.10;99.90;;;;;;5073174;28;20215;-41
2023/10/28 11:49:57;;;;;;;8.03;1.80;;;15.10;99.90;;;;;;5072107;28;20215;-42
2023/10/28 11:52:23;;;;;;;7.17;1.57;;;15.10;99.90;;;;;;5076912;28;20208;-42
2023/10/28 11:54:49;;;;;;;8.20;1.90;;;15.00;99.90;;;;;;5076808;28;20192;-41
2023/10/28 11:57:15;;;;;;;8.47;2.03;;;15.10;99.90;;;;;;5058665;28;20198;-41
2023/10/28 11:59:44;;;;;;;8.90;2.10;;;15.10;99.90;;;;;;5058770;28;20245;-41
2023/10/28 12:02:10;;;;;;;7.53;1.57;;;15.10;99.90;;;;;;5076519;28;20573;-42
2023/10/28 12:04:35;;;;;;;8.80;2.13;;;15.10;99.90;;;;;;5076836;28;20183;-41
2023/10/28 12:07:03;;;;;;;9.43;1.50;;;15.00;99.90;;;;;;5076758;28;20188;-41
2023/10/28 12:09:29;;;;;;;7.33;1.87;;;15.00;99.90;;;;;;5075926;28;20215;-42
2023/10/28 12:11:54;;;;;;;11.00;2.17;;;14.90;99.90;;;;;;5058672;28;20290;-41
2023/10/28 12:14:22;;;;;;;7.63;1.70;;;15.00;99.90;;;;;;5076549;28;20591;-41
2023/10/28 12:16:49;;;;;;;6.17;1.80;;;15.00;99.90;;;;;;5058878;28;20184;-41
2023/10/28 12:19:15;;;;;;;6.27;1.57;;;15.00;99.90;;;;;;5076452;28;20275;-41
2023/10/28 12:21:42;;;;;;;8.13;2.17;;;15.00;99.90;;;;;;5076100;28;20219;-41
2023/10/28 12:24:08;;;;;;;6.57;1.60;;;15.10;99.90;;;;;;5076048;28;20176;-41
2023/10/28 12:26:33;;;;;;;8.63;2.13;;;15.10;99.90;;;;;;5076240;28;20186;-41
2023/10/28 12:28:59;;;;;;;6.47;1.60;;;15.20;99.90;;;;;;5076075;28;20198;-42
2023/10/28 12:31:26;;;;;;;7.00;2.30;;;15.20;99.90;;;;;;5076068;28;20261;-40
2023/10/28 12:33:52;;;;;;;6.47;1.37;;;15.20;99.90;;;;;;5058295;28;20674;-40
2023/10/28 12:36:18;;;;;;;6.10;1.43;;;15.30;99.90;;;;;;5075935;28;20179;-41
2023/10/28 12:38:46;;;;;;;8.57;1.87;;;15.30;99.90;;;;;;5075834;28;20183;-41
2023/10/28 12:41:14;;;;;;;7.27;1.87;;;15.20;99.90;;;;;;5058205;28;20218;-39
2023/10/28 12:43:41;;;;;;;5.67;1.40;;;15.20;99.90;;;;;;5076032;28;20230;-39
2023/10/28 12:46:07;;;;;;;7.37;1.70;;;15.20;99.90;;;;;;5075671;28;20179;-41
2023/10/28 12:48:33;;;;;;;7.60;1.60;;;15.20;99.90;;;;;;5075720;28;20184;-39
2023/10/28 12:51:01;;;;;;;4.50;1.20;;;15.20;99.90;;;;;;5075728;28;20239;-41
2023/10/28 12:53:27;;;;;;;4.23;1.17;;;15.20;99.90;;;;;;5075560;28;20192;-42
2023/10/28 12:55:57;;;;;;;3.83;1.13;;;15.20;99.90;;;;;;5075335;28;20682;-40
2023/10/28 12:58:23;;;;;;;7.03;1.37;;;15.20;99.90;;;;;;5075433;28;20179;-40